createdAt,value
2018-07-19T00:01:53.966Z,17.40
2018-07-19T00:04:22.292Z,17.30
2018-07-19T00:06:50.640Z,17.30
2018-07-19T00:09:19.200Z,17.30
2018-07-19T00:11:47.520Z,17.30
2018-07-19T00:14:15.870Z,17.30
2018-07-19T00:16:44.192Z,17.20
2018-07-19T00:19:13.296Z,17.00
2018-07-19T00:21:42.524Z,16.90
2018-07-19T00:24:10.848Z,16.90
2018-07-19T00:26:39.190Z,16.90
2018-07-19T00:29:07.520Z,16.90
2018-07-19T00:31:36.658Z,16.80
2018-07-19T00:34:04.983Z,16.80
2018-07-19T00:36:33.330Z,16.80
2018-07-19T00:39:02.318Z,16.70
2018-07-19T00:41:30.632Z,16.70
2018-07-19T00:43:58.974Z,16.70
2018-07-19T00:46:27.361Z,16.70
2018-07-19T00:48:55.702Z,16.60
2018-07-19T00:51:25.464Z,16.40
2018-07-19T00:53:54.258Z,16.40
2018-07-19T00:56:22.618Z,16.30
2018-07-19T00:58:51.096Z,16.20
2018-07-19T01:01:19.470Z,16.20
2018-07-19T01:03:47.787Z,16.10
2018-07-19T01:06:16.140Z,16.00
2018-07-19T01:08:44.490Z,16.10
2018-07-19T01:11:12.826Z,16.00
2018-07-19T01:13:41.176Z,15.90
2018-07-19T01:16:09.698Z,15.90
2018-07-19T01:18:38.134Z,15.90
2018-07-19T01:21:06.480Z,15.90
2018-07-19T01:23:34.902Z,15.80
2018-07-19T01:26:03.274Z,15.80
2018-07-19T01:28:31.592Z,15.80
2018-07-19T01:31:00.202Z,15.80
2018-07-19T01:33:29.401Z,15.90
2018-07-19T01:35:57.778Z,15.80
2018-07-19T01:38:26.162Z,15.90
2018-07-19T01:40:54.535Z,15.90
2018-07-19T01:43:22.858Z,15.80
2018-07-19T01:45:51.192Z,15.70
2018-07-19T01:48:19.550Z,15.70
2018-07-19T01:50:47.884Z,15.70
2018-07-19T01:53:16.278Z,15.70
2018-07-19T01:55:44.608Z,15.70
2018-07-19T01:58:13.000Z,15.60
2018-07-19T02:00:41.330Z,15.60
2018-07-19T02:03:09.646Z,15.60
2018-07-19T02:05:38.000Z,15.50
2018-07-19T02:08:07.076Z,15.60
2018-07-19T02:10:35.422Z,15.60
2018-07-19T02:13:03.918Z,15.70
2018-07-19T02:15:32.266Z,15.70
2018-07-19T02:18:00.578Z,15.70
2018-07-19T02:20:29.006Z,15.70
2018-07-19T02:22:58.156Z,15.80
2018-07-19T02:25:26.568Z,15.80
2018-07-19T02:27:54.898Z,15.80
2018-07-19T02:30:23.252Z,15.80
2018-07-19T02:32:51.596Z,15.80
2018-07-19T02:35:20.019Z,15.70
2018-07-19T02:37:48.348Z,15.70
2018-07-19T02:40:16.686Z,15.70
2018-07-19T02:42:45.158Z,15.70
2018-07-19T02:45:13.498Z,15.70
2018-07-19T02:47:41.818Z,15.70
2018-07-19T02:50:10.166Z,15.70
2018-07-19T02:52:39.308Z,15.60
2018-07-19T02:55:07.696Z,15.60
2018-07-19T02:57:36.014Z,15.50
2018-07-19T03:00:05.116Z,15.50
2018-07-19T03:02:34.252Z,15.50
2018-07-19T03:05:02.591Z,15.50
2018-07-19T03:07:30.936Z,15.50
2018-07-19T03:09:59.260Z,15.50
2018-07-19T03:12:28.370Z,15.40
2018-07-19T03:14:56.735Z,15.30
2018-07-19T03:17:25.090Z,15.40
2018-07-19T03:19:53.426Z,15.40
2018-07-19T03:22:21.782Z,15.40
2018-07-19T03:24:50.250Z,15.40
2018-07-19T03:27:18.590Z,15.40
2018-07-19T03:29:46.918Z,15.40
2018-07-19T03:32:15.238Z,15.40
2018-07-19T03:34:43.558Z,15.40
2018-07-19T03:37:12.784Z,15.30
2018-07-19T03:39:41.122Z,15.30
2018-07-19T03:42:09.446Z,15.30
2018-07-19T03:44:37.772Z,15.30
2018-07-19T03:47:06.126Z,15.30
2018-07-19T03:49:34.670Z,15.30
2018-07-19T03:52:02.995Z,15.30
2018-07-19T03:54:31.434Z,15.20
2018-07-19T03:56:59.878Z,15.20
2018-07-19T03:59:28.346Z,15.20
2018-07-19T04:01:56.718Z,15.20
2018-07-19T04:04:25.111Z,15.20
2018-07-19T04:06:53.504Z,15.10
2018-07-19T04:09:22.613Z,15.10
2018-07-19T04:11:51.050Z,15.10
2018-07-19T04:14:19.370Z,15.10
2018-07-19T04:16:48.452Z,15.10
2018-07-19T04:19:17.585Z,15.10
2018-07-19T04:21:45.915Z,15.10
2018-07-19T04:24:14.338Z,15.20
2018-07-19T04:26:42.674Z,15.20
2018-07-19T04:29:11.086Z,15.30
2018-07-19T04:31:39.524Z,15.30
2018-07-19T04:34:07.900Z,15.30
2018-07-19T04:36:36.566Z,15.40
2018-07-19T04:39:04.898Z,15.40
2018-07-19T04:41:33.276Z,15.50
2018-07-19T04:44:01.670Z,15.60
2018-07-19T04:46:30.020Z,15.60
2018-07-19T04:48:58.436Z,15.60
2018-07-19T04:51:26.793Z,15.80
2018-07-19T04:53:55.495Z,15.70
2018-07-19T04:56:23.850Z,15.80
2018-07-19T04:58:53.025Z,15.80
2018-07-19T05:01:21.360Z,15.70
2018-07-19T05:03:49.734Z,15.60
2018-07-19T05:06:18.142Z,15.70
2018-07-19T05:08:46.492Z,15.80
2018-07-19T05:11:14.837Z,15.90
2018-07-19T05:13:43.201Z,15.90
2018-07-19T05:16:11.584Z,15.90
2018-07-19T05:18:39.964Z,16.00
2018-07-19T05:21:08.346Z,16.00
2018-07-19T05:23:36.712Z,16.10
2018-07-19T05:26:05.093Z,16.10
2018-07-19T05:28:33.451Z,16.20
2018-07-19T05:31:01.839Z,16.30
2018-07-19T05:33:30.174Z,16.40
2018-07-19T05:35:58.542Z,16.40
2018-07-19T05:38:26.919Z,16.50
2018-07-19T05:40:55.302Z,16.50
2018-07-19T05:43:23.799Z,16.60
2018-07-19T05:45:52.202Z,16.60
2018-07-19T05:48:20.554Z,16.70
2018-07-19T05:50:48.919Z,16.80
2018-07-19T05:53:17.315Z,16.90
2018-07-19T05:55:45.677Z,16.90
2018-07-19T05:58:14.093Z,17.00
2018-07-19T06:00:42.436Z,17.00
2018-07-19T06:03:10.759Z,17.10
2018-07-19T06:05:39.100Z,17.10
2018-07-19T06:08:08.198Z,17.00
2018-07-19T06:10:36.590Z,17.00
2018-07-19T06:13:05.243Z,17.00
2018-07-19T06:15:33.823Z,17.10
2018-07-19T06:18:02.223Z,17.10
2018-07-19T06:20:31.492Z,17.40
2018-07-19T06:22:59.845Z,17.40
2018-07-19T06:25:28.173Z,17.50
2018-07-19T06:27:56.529Z,17.70
2018-07-19T06:30:24.863Z,17.90
2018-07-19T06:32:53.325Z,18.10
2018-07-19T06:35:22.423Z,18.50
2018-07-19T06:37:51.515Z,18.60
2018-07-19T06:40:20.611Z,18.70
2018-07-19T06:42:49.713Z,18.70
2018-07-19T06:45:18.063Z,18.70
2018-07-19T06:47:46.396Z,18.80
2018-07-19T06:50:14.843Z,18.90
2018-07-19T06:52:43.247Z,19.00
2018-07-19T06:55:11.658Z,19.20
2018-07-19T06:57:40.001Z,19.30
2018-07-19T07:00:08.388Z,19.20
2018-07-19T07:02:36.769Z,19.40
2018-07-19T07:05:05.117Z,19.50
2018-07-19T07:07:33.618Z,19.60
2018-07-19T07:10:01.931Z,19.60
2018-07-19T07:12:30.259Z,19.90
2018-07-19T07:14:59.408Z,20.30
2018-07-19T07:17:27.815Z,20.30
2018-07-19T07:19:56.252Z,20.20
2018-07-19T07:22:24.593Z,20.30
2018-07-19T07:24:53.765Z,20.70
2018-07-19T07:27:22.091Z,20.60
2018-07-19T07:29:50.438Z,20.60
2018-07-19T07:32:19.526Z,20.70
2018-07-19T07:34:47.866Z,20.70
2018-07-19T07:37:16.205Z,20.70
2018-07-19T07:39:45.311Z,20.60
2018-07-19T07:42:14.515Z,20.60
2018-07-19T07:44:42.838Z,20.60
2018-07-19T07:47:11.172Z,20.70
2018-07-19T07:49:39.581Z,20.70
2018-07-19T07:52:07.889Z,20.70
2018-07-19T07:54:36.461Z,20.70
2018-07-19T07:57:04.999Z,20.80
2018-07-19T07:59:33.452Z,20.90
2018-07-19T08:02:01.845Z,21.00
2018-07-19T08:04:30.944Z,21.00
2018-07-19T08:07:00.131Z,21.00
2018-07-19T08:09:29.231Z,21.20
2018-07-19T08:11:58.337Z,21.30
2018-07-19T08:14:27.256Z,21.30
2018-07-19T08:16:55.743Z,21.30
2018-07-19T08:19:24.064Z,21.40
2018-07-19T08:21:52.486Z,21.60
2018-07-19T08:24:21.691Z,21.70
2018-07-19T08:26:50.417Z,21.80
2018-07-19T08:29:18.824Z,21.90
2018-07-19T08:31:47.170Z,22.00
2018-07-19T08:34:15.670Z,22.10
2018-07-19T08:36:44.040Z,22.10
2018-07-19T08:39:12.490Z,22.10
2018-07-19T08:41:41.191Z,22.10
2018-07-19T08:44:09.638Z,22.10
2018-07-19T08:46:38.785Z,22.20
2018-07-19T08:49:07.209Z,22.30
2018-07-19T08:51:36.161Z,22.40
2018-07-19T08:54:04.582Z,22.50
2018-07-19T08:56:32.952Z,22.50
2018-07-19T08:59:01.330Z,22.70
2018-07-19T09:01:29.703Z,22.40
2018-07-19T09:03:58.797Z,22.80
2018-07-19T09:06:27.898Z,23.00
2018-07-19T09:08:57.040Z,23.00
2018-07-19T09:11:25.363Z,23.00
2018-07-19T09:13:53.693Z,23.20
2018-07-19T09:16:22.063Z,23.30
2018-07-19T09:18:50.439Z,23.30
2018-07-19T09:21:19.560Z,23.50
2018-07-19T09:23:47.913Z,23.60
2018-07-19T09:26:16.271Z,23.50
2018-07-19T09:28:44.598Z,23.60
2018-07-19T09:31:13.029Z,23.80
2018-07-19T09:33:41.381Z,24.10
2018-07-19T09:36:09.786Z,24.40
2018-07-19T09:38:38.326Z,24.60
2018-07-19T09:41:06.595Z,24.80
2018-07-19T09:43:34.968Z,24.80
2018-07-19T09:46:03.294Z,24.90
2018-07-19T09:48:32.402Z,25.10
2018-07-19T09:51:00.777Z,25.10
2018-07-19T09:53:29.149Z,25.40
2018-07-19T09:55:58.266Z,26.20
2018-07-19T09:58:26.577Z,26.10
2018-07-19T10:00:54.919Z,26.50
2018-07-19T10:03:23.233Z,26.80
2018-07-19T10:05:51.738Z,27.10
2018-07-19T10:08:20.182Z,27.40
2018-07-19T10:10:48.543Z,27.50
2018-07-19T10:13:16.914Z,27.70
2018-07-19T10:15:45.269Z,27.90
2018-07-19T10:18:14.411Z,27.50
2018-07-19T10:20:42.825Z,27.50
2018-07-19T10:23:11.139Z,27.60
2018-07-19T10:25:40.231Z,28.00
2018-07-19T10:28:09.329Z,28.10
2018-07-19T10:30:37.709Z,28.10
2018-07-19T10:33:06.822Z,28.90
2018-07-19T10:35:35.192Z,28.80
2018-07-19T10:38:03.810Z,28.80
2018-07-19T10:40:32.208Z,29.20
2018-07-19T10:43:00.587Z,29.40
2018-07-19T10:45:28.901Z,29.90
2018-07-19T10:47:58.127Z,30.20
2018-07-19T10:50:26.467Z,30.10
2018-07-19T10:52:55.687Z,29.50
2018-07-19T10:55:24.046Z,29.40
2018-07-19T10:57:53.227Z,30.00
2018-07-19T11:00:21.671Z,30.00
2018-07-19T11:02:50.094Z,29.80
2018-07-19T11:05:18.355Z,29.30
2018-07-19T11:07:46.687Z,29.70
2018-07-19T11:10:15.094Z,30.10
2018-07-19T11:12:43.507Z,30.60
2018-07-19T11:15:12.820Z,30.90
2018-07-19T11:17:41.346Z,31.10
2018-07-19T11:20:09.715Z,31.20
2018-07-19T11:22:38.241Z,31.00
2018-07-19T11:25:06.561Z,31.30
2018-07-19T11:27:34.886Z,31.60
2018-07-19T11:30:04.237Z,32.10
2018-07-19T11:32:33.356Z,32.30
2018-07-19T11:35:01.740Z,32.30
2018-07-19T11:37:30.274Z,32.30
2018-07-19T11:39:58.590Z,32.20
2018-07-19T11:42:26.970Z,32.40
2018-07-19T11:44:55.483Z,32.60
2018-07-19T11:47:23.893Z,32.90
2018-07-19T11:49:52.562Z,33.00
2018-07-19T11:52:21.011Z,33.10
2018-07-19T11:54:49.383Z,33.40
2018-07-19T11:57:17.782Z,33.50
2018-07-19T11:59:46.980Z,33.10
2018-07-19T12:02:15.314Z,33.10
2018-07-19T12:04:44.414Z,32.90
2018-07-19T12:07:13.551Z,33.30
2018-07-19T12:09:41.909Z,33.20
2018-07-19T12:12:10.395Z,33.40
2018-07-19T12:14:38.775Z,33.60
2018-07-19T12:17:07.258Z,33.60
2018-07-19T12:19:35.870Z,33.50
2018-07-19T12:22:04.923Z,33.00
2018-07-19T12:24:33.382Z,33.00
2018-07-19T12:27:01.788Z,33.20
2018-07-19T12:29:30.125Z,33.30
2018-07-19T12:31:58.499Z,33.30
2018-07-19T12:34:26.858Z,33.40
2018-07-19T12:36:55.245Z,34.00
2018-07-19T12:39:23.650Z,33.50
2018-07-19T12:41:51.982Z,33.70
2018-07-19T12:44:20.364Z,33.90
2018-07-19T12:46:48.835Z,34.40
2018-07-19T12:49:17.172Z,34.50
2018-07-19T12:51:46.779Z,34.60
2018-07-19T12:54:15.195Z,34.70
2018-07-19T12:56:43.580Z,34.40
2018-07-19T12:59:12.870Z,34.50
2018-07-19T13:01:41.354Z,34.40
2018-07-19T13:04:10.037Z,34.30
2018-07-19T13:06:38.428Z,33.90
2018-07-19T13:09:07.004Z,34.00
2018-07-19T13:11:36.090Z,34.30
2018-07-19T13:14:04.476Z,34.30
2018-07-19T13:16:32.864Z,34.40
2018-07-19T13:19:01.192Z,34.50
2018-07-19T13:21:29.611Z,34.50
2018-07-19T13:23:57.995Z,34.50
2018-07-19T13:26:26.341Z,34.60
2018-07-19T13:28:54.702Z,34.90
2018-07-19T13:31:23.062Z,34.40
2018-07-19T13:33:51.750Z,34.20
2018-07-19T13:36:20.118Z,33.90
2018-07-19T13:38:48.472Z,33.40
2018-07-19T13:41:16.820Z,33.90
2018-07-19T13:43:45.220Z,34.20
2018-07-19T13:46:14.340Z,35.10
2018-07-19T13:48:42.724Z,35.00
2018-07-19T13:51:11.134Z,35.40
2018-07-19T13:53:51.448Z,35.40
2018-07-19T13:56:19.864Z,35.20
2018-07-19T13:58:48.215Z,35.30
2018-07-19T14:01:16.610Z,35.20
2018-07-19T14:03:44.994Z,34.70
2018-07-19T14:06:13.472Z,34.40
2018-07-19T14:08:41.862Z,34.00
2018-07-19T14:11:10.247Z,34.10
2018-07-19T14:13:38.631Z,34.40
2018-07-19T14:16:07.920Z,34.80
2018-07-19T14:18:36.306Z,34.80
2018-07-19T14:21:04.689Z,34.70
2018-07-19T14:23:33.934Z,34.70
2018-07-19T14:26:03.079Z,33.90
2018-07-19T14:28:31.500Z,33.90
2018-07-19T14:31:00.150Z,34.20
2018-07-19T14:33:28.589Z,33.70
2018-07-19T14:35:56.964Z,33.80
2018-07-19T14:38:25.336Z,34.00
2018-07-19T14:40:53.706Z,34.20
2018-07-19T14:43:22.482Z,34.50
2018-07-19T14:45:50.911Z,34.50
2018-07-19T14:48:19.256Z,34.60
2018-07-19T14:50:48.384Z,35.10
2018-07-19T14:53:16.791Z,35.10
2018-07-19T14:55:45.284Z,35.20
2018-07-19T14:58:13.664Z,35.40
2018-07-19T15:00:42.131Z,35.50
2018-07-19T15:03:10.589Z,35.50
2018-07-19T15:05:39.997Z,35.50
2018-07-19T15:08:08.390Z,34.40
2018-07-19T15:10:36.746Z,33.80
2018-07-19T15:13:05.314Z,33.60
2018-07-19T15:15:33.688Z,33.20
2018-07-19T15:18:02.841Z,31.40
2018-07-19T15:20:31.210Z,31.30
2018-07-19T15:22:59.628Z,30.60
2018-07-19T15:25:27.996Z,31.20
2018-07-19T15:27:56.354Z,31.50
2018-07-19T15:30:24.756Z,31.80
2018-07-19T15:32:53.318Z,31.20
2018-07-19T15:35:21.710Z,31.00
2018-07-19T15:37:50.100Z,30.80
2018-07-19T15:40:19.098Z,30.80
2018-07-19T15:42:47.467Z,30.50
2018-07-19T15:45:15.846Z,29.90
2018-07-19T15:47:44.216Z,29.30
2018-07-19T15:50:12.592Z,29.10
2018-07-19T15:52:41.176Z,28.60
2018-07-19T15:55:09.584Z,28.40
2018-07-19T15:57:37.978Z,28.20
2018-07-19T16:00:06.346Z,27.90
2018-07-19T16:02:34.722Z,27.70
2018-07-19T16:05:03.051Z,27.50
2018-07-19T16:07:31.392Z,27.30
2018-07-19T16:10:00.498Z,27.20
2018-07-19T16:12:28.841Z,27.20
2018-07-19T16:14:57.273Z,27.40
2018-07-19T16:17:25.753Z,27.50
2018-07-19T16:19:54.287Z,27.50
2018-07-19T16:22:22.613Z,27.90
2018-07-19T16:24:51.015Z,28.50
2018-07-19T16:27:19.582Z,29.20
2018-07-19T16:29:47.969Z,29.80
2018-07-19T16:32:16.321Z,30.50
2018-07-19T16:34:45.427Z,32.10
2018-07-19T16:37:13.773Z,32.10
2018-07-19T16:39:42.126Z,32.80
2018-07-19T16:42:10.553Z,33.40
2018-07-19T16:44:39.762Z,34.40
2018-07-19T16:47:08.083Z,34.40
2018-07-19T16:49:37.414Z,34.80
2018-07-19T16:52:06.539Z,35.30
2018-07-19T16:54:35.627Z,35.30
2018-07-19T16:57:04.739Z,35.30
2018-07-19T16:59:33.072Z,35.30
2018-07-19T17:02:01.493Z,35.20
2018-07-19T17:04:29.923Z,34.80
2018-07-19T17:06:58.295Z,34.80
2018-07-19T17:09:26.759Z,34.70
2018-07-19T17:11:55.086Z,34.60
2018-07-19T17:14:23.393Z,34.60
2018-07-19T17:16:51.721Z,34.50
2018-07-19T17:19:20.113Z,34.50
2018-07-19T17:21:48.540Z,34.30
2018-07-19T17:24:17.023Z,34.20
2018-07-19T17:26:46.159Z,33.90
2018-07-19T17:29:14.499Z,33.90
2018-07-19T17:31:42.866Z,33.60
2018-07-19T17:34:11.203Z,33.10
2018-07-19T17:36:39.666Z,32.50
2018-07-19T17:39:08.693Z,32.00
2018-07-19T17:41:37.919Z,30.70
2018-07-19T17:44:06.256Z,30.60
2018-07-19T17:46:35.014Z,30.10
2018-07-19T17:49:03.396Z,29.50
2018-07-19T17:51:31.754Z,29.00
2018-07-19T17:54:00.134Z,28.70
2018-07-19T17:56:28.460Z,28.30
2018-07-19T17:58:57.337Z,28.20
2018-07-19T18:01:25.800Z,28.00
2018-07-19T18:03:54.170Z,28.00
2018-07-19T18:06:22.522Z,28.00
2018-07-19T18:08:50.914Z,28.20
2018-07-19T18:11:19.303Z,28.50
2018-07-19T18:13:47.677Z,28.80
2018-07-19T18:16:15.999Z,29.20
2018-07-19T18:18:44.327Z,29.50
2018-07-19T18:21:12.711Z,29.70
2018-07-19T18:23:41.063Z,29.80
2018-07-19T18:26:09.395Z,30.00
2018-07-19T18:28:37.749Z,30.10
2018-07-19T18:31:06.118Z,30.10
2018-07-19T18:33:34.946Z,30.10
2018-07-19T18:36:03.419Z,30.00
2018-07-19T18:38:31.870Z,29.60
2018-07-19T18:41:00.279Z,29.30
2018-07-19T18:43:28.651Z,29.10
2018-07-19T18:45:57.182Z,28.90
2018-07-19T18:48:25.564Z,28.70
2018-07-19T18:50:53.919Z,28.50
2018-07-19T18:53:22.359Z,28.20
2018-07-19T18:55:50.776Z,27.90
2018-07-19T18:58:19.102Z,27.50
2018-07-19T19:00:47.434Z,27.20
2018-07-19T19:03:15.800Z,26.70
2018-07-19T19:05:44.144Z,26.40
2018-07-19T19:08:12.553Z,26.00
2018-07-19T19:10:40.930Z,25.70
2018-07-19T19:13:09.238Z,25.40
2018-07-19T19:15:37.589Z,25.10
2018-07-19T19:18:05.958Z,24.90
2018-07-19T19:20:34.425Z,24.70
2018-07-19T19:23:02.830Z,24.50
2018-07-19T19:25:31.220Z,24.30
2018-07-19T19:27:59.848Z,24.20
2018-07-19T19:30:28.193Z,24.10
2018-07-19T19:32:57.463Z,24.00
2018-07-19T19:35:25.839Z,23.90
2018-07-19T19:37:54.187Z,23.90
2018-07-19T19:40:23.298Z,23.70
2018-07-19T19:42:51.681Z,23.70
2018-07-19T19:45:20.179Z,23.60
2018-07-19T19:47:49.481Z,23.40
2018-07-19T19:50:17.833Z,23.40
2018-07-19T19:52:46.921Z,23.20
2018-07-19T19:55:16.570Z,23.10
2018-07-19T19:57:45.160Z,23.10
2018-07-19T20:00:13.529Z,23.00
2018-07-19T20:02:41.939Z,23.00
2018-07-19T20:05:10.588Z,22.90
2018-07-19T20:07:39.549Z,22.90
2018-07-19T20:10:07.961Z,22.80
2018-07-19T20:12:36.341Z,22.70
2018-07-19T20:15:04.676Z,22.70
2018-07-19T20:17:33.030Z,22.60
2018-07-19T20:20:01.376Z,22.60
2018-07-19T20:22:29.830Z,22.50
2018-07-19T20:24:58.183Z,22.50
2018-07-19T20:27:26.561Z,22.40
2018-07-19T20:29:54.901Z,22.20
2018-07-19T20:32:23.235Z,22.10
2018-07-19T20:34:51.588Z,22.00
2018-07-19T20:37:19.989Z,21.90
2018-07-19T20:39:48.325Z,21.80
2018-07-19T20:42:16.754Z,21.70
2018-07-19T20:44:45.109Z,21.70
2018-07-19T20:47:13.440Z,21.60
2018-07-19T20:49:41.781Z,21.60
2018-07-19T20:52:10.861Z,21.60
2018-07-19T20:54:39.353Z,21.50
2018-07-19T20:57:07.699Z,21.50
2018-07-19T20:59:36.062Z,21.40
2018-07-19T21:02:04.468Z,21.30
2018-07-19T21:04:33.006Z,21.20
2018-07-19T21:07:02.143Z,21.10
2018-07-19T21:09:31.038Z,21.10
2018-07-19T21:11:59.705Z,21.10
2018-07-19T21:14:28.129Z,21.00
2018-07-19T21:16:56.541Z,21.00
2018-07-19T21:19:24.959Z,20.90
2018-07-19T21:21:53.321Z,20.90
2018-07-19T21:24:22.090Z,20.80
2018-07-19T21:26:50.449Z,20.70
2018-07-19T21:29:18.859Z,20.60
2018-07-19T21:31:47.237Z,20.60
2018-07-19T21:34:16.557Z,20.50
2018-07-19T21:36:45.008Z,20.40
2018-07-19T21:39:14.377Z,20.40
2018-07-19T21:41:42.869Z,20.30
2018-07-19T21:44:11.234Z,20.30
2018-07-19T21:46:39.684Z,20.30
2018-07-19T21:49:08.045Z,20.20
2018-07-19T21:51:36.411Z,20.20
2018-07-19T21:54:04.767Z,20.20
2018-07-19T21:56:33.121Z,20.10
2018-07-19T21:59:01.599Z,20.10
2018-07-19T22:01:29.960Z,20.00
2018-07-19T22:03:58.303Z,20.00
2018-07-19T22:06:26.651Z,20.00
2018-07-19T22:08:55.058Z,19.90
2018-07-19T22:11:24.172Z,19.90
2018-07-19T22:13:52.507Z,19.90
2018-07-19T22:16:20.861Z,19.80
2018-07-19T22:18:49.302Z,19.80
2018-07-19T22:21:18.399Z,19.70
2018-07-19T22:23:47.007Z,19.70
2018-07-19T22:26:15.386Z,19.60
2018-07-19T22:28:45.368Z,19.50
2018-07-19T22:31:14.293Z,19.50
2018-07-19T22:33:42.645Z,19.50
2018-07-19T22:36:11.928Z,19.40
2018-07-19T22:38:41.019Z,19.40
2018-07-19T22:41:10.162Z,19.40
2018-07-19T22:43:38.524Z,19.40
2018-07-19T22:46:07.142Z,19.30
2018-07-19T22:48:35.463Z,19.30
2018-07-19T22:51:03.816Z,19.20
2018-07-19T22:53:32.157Z,19.10
2018-07-19T22:56:00.503Z,19.10
2018-07-19T22:58:28.843Z,19.10
2018-07-19T23:00:57.252Z,19.10
2018-07-19T23:03:26.374Z,19.10
2018-07-19T23:05:54.789Z,19.10
2018-07-19T23:08:23.306Z,19.10
2018-07-19T23:10:51.613Z,19.00
2018-07-19T23:13:19.955Z,19.00
2018-07-19T23:15:48.317Z,19.00
2018-07-19T23:18:16.671Z,19.00
2018-07-19T23:20:45.044Z,19.00
2018-07-19T23:23:13.392Z,18.90
2018-07-19T23:25:41.966Z,18.90
2018-07-19T23:28:10.329Z,18.90
2018-07-19T23:30:38.673Z,18.90
2018-07-19T23:33:06.994Z,18.90
2018-07-19T23:35:35.389Z,18.80
2018-07-19T23:38:03.732Z,18.80
2018-07-19T23:40:32.773Z,18.80
2018-07-19T23:43:01.128Z,18.80
2018-07-19T23:45:29.461Z,18.80
2018-07-19T23:47:57.799Z,18.70
2018-07-19T23:50:26.902Z,18.70
2018-07-19T23:52:56.001Z,18.60
2018-07-19T23:55:24.393Z,18.60
2018-07-19T23:57:52.789Z,18.50
